Flight Track Log - Related Links

Times and Time Zones

All times are in EDT time to prevent confusion due to time zone crossing. See the AWE1535 flight status page for this flight to view local times or setup timezone preferences in your user account.

Time Position Orientation Groundspeed Altitude Reporting Facility
EDT Latitude Longitude Course Direction KTS MPH feet Rate Location/Type
Mon 11:37:23 PM 33.4333 -112.0333 266° West 187 215 2,000  Level Phoenix TRACON
Mon 11:42:15 PM 33.4119 -112.4164 277° West 282 325 10,300 1,593 Climbing Albuquerque Center
Mon 11:43:17 PM 33.4258 -112.5461 276° West 334 384 11,400 1,220 Climbing Albuquerque Center
Mon 11:44:18 PM 33.4367 -112.6653 278° West 366 421 12,800 1,623 Climbing Albuquerque Center
Mon 11:45:19 PM 33.4506 -112.7900 290° West 376 433 14,700 1,805 Climbing Albuquerque Center
Mon 11:46:21 PM 33.4856 -112.9083 292° West 385 443 16,500 1,707 Climbing Albuquerque Center
Mon 11:47:22 PM 33.5275 -113.0319 293° West 398 458 18,200 1,574 Climbing Albuquerque Center
Mon 11:48:23 PM 33.5706 -113.1528 293° West 397 457 19,700 1,415 Climbing Albuquerque Center
Mon 11:49:25 PM 33.6153 -113.2769 293° West 403 464 21,100 1,561 Climbing Albuquerque Center
Mon 11:50:26 PM 33.6675 -113.4261 293° West 414 476 22,900 1,475 Climbing Albuquerque Center
Mon 11:51:27 PM 33.7144 -113.5572 293° West 418 481 24,100 1,122 Climbing Albuquerque Center
Mon 11:52:29 PM 33.7622 -113.6936 293° West 427 491 25,200 1,171 Climbing Albuquerque Center
Mon 11:53:30 PM 33.8097 -113.8314 293° West 436 502 26,500 1,328 Climbing Albuquerque Center
Mon 11:54:31 PM 33.8578 -113.9683 293° West 438 504 27,900 738 Climbing Albuquerque Center
Mon 11:55:32 PM 33.9050 -114.1031 281° West 433 498 28,000 49 Climbing Albuquerque Center
Mon 11:56:34 PM 33.9258 -114.2386 279° West 440 506 28,000  Level Albuquerque Center
Mon 11:57:35 PM 33.9450 -114.3800 278° West 435 501 28,000  Level Albuquerque Center
Mon 11:58:36 PM 33.9625 -114.5233 278° West 434 499 28,000  Level Albuquerque Center
Mon 11:59:37 PM 33.9797 -114.6669 278° West 434 499 28,000  Level Albuquerque Center
Tue 12:00:38 AM 34.0008 -114.8411 279° West 437 503 28,000 -47 Level Albuquerque Center
Tue 12:01:46 AM 34.0197 -114.9883 279° West 441 507 27,900  Descending Los Angeles Center
Tue 12:02:46 AM 34.0378 -115.1311 278° West 446 513 28,000 50 Climbing Los Angeles Center
Tue 12:03:46 AM 34.0556 -115.2764 278° West 446 513 28,000  Level Los Angeles Center
Tue 12:04:46 AM 34.0731 -115.4217 278° West 446 513 28,000  Level Los Angeles Center
Tue 12:05:46 AM 34.0906 -115.5669 278° West 446 513 28,000  Level Los Angeles Center
Tue 12:06:46 AM 34.1078 -115.7147 267° West 446 513 28,000  Level Los Angeles Center
Tue 12:07:46 AM 34.1019 -115.8628 259° West 446 513 28,000  Level Los Angeles Center
Tue 12:08:46 AM 34.0792 -116.0083 259° West 440 506 28,000  Level Los Angeles Center
Tue 12:09:46 AM 34.0564 -116.1539 260° West 445 512 28,000  Level Los Angeles Center
Tue 12:10:46 AM 34.0353 -116.2992 259° West 445 512 28,000 -250 Level Los Angeles Center
Tue 12:11:46 AM 34.0122 -116.4369 265° West 445 512 27,500 -1,300 Descending Los Angeles Center
Tue 12:12:46 AM 34.0011 -116.5847 263° West 425 489 25,400 -2,150 Descending Los Angeles Center
Tue 12:13:46 AM 33.9881 -116.7125 264° West 405 466 23,200 -2,000 Descending Los Angeles Center
Tue 12:14:46 AM 33.9792 -116.8225 264° West 392 451 21,400 -2,000 Descending Los Angeles Center
Tue 12:15:52 AM 33.9667 -116.9667 270° West 362 417 19,000 -2,000 Descending Southern California TRACON
Tue 12:16:52 AM 33.9667 -117.0833 260° West 366 421 17,200 -1,537 Descending Southern California TRACON
Tue 12:17:53 AM 33.9500 -117.2000 261° West 355 409 15,900 -1,323 Descending Southern California TRACON
Tue 12:18:59 AM 33.9333 -117.3333 289° West 347 399 14,400 -1,333 Descending Southern California TRACON
Tue 12:19:59 AM 33.9667 -117.4500 292° West 346 398 13,100 -1,316 Descending Southern California TRACON
Tue 12:20:53 AM 34.0000 -117.5500 296° West 339 390 11,900 -1,200 Descending Southern California TRACON
Tue 12:21:54 AM 34.0333 -117.6333 259° West 306 352 10,800 -1,140 Descending Southern California TRACON
Tue 12:22:54 AM 34.0167 -117.7333 270° West 287 330 9,600 -1,300 Descending Southern California TRACON
Tue 12:23:54 AM 34.0167 -117.8333 256° West 284 327 8,200 -1,190 Descending Southern California TRACON
Tue 12:24:55 AM 34.0000 -117.9167 270° West 263 303 7,200 -1,091 Descending Southern California TRACON
Tue 12:25:55 AM 34.0000 -118.0000 256° West 242 278 6,000 -1,048 Descending Southern California TRACON
Tue 12:27:01 AM 33.9833 -118.0833 270° West 219 252 5,000 -893 Descending Southern California TRACON
Tue 12:27:56 AM 33.9833 -118.1500 248° West 187 215 4,200 -835 Descending Southern California TRACON
Tue 12:28:56 AM 33.9667 -118.2000 270° West 161 185 3,400 -800 Descending Southern California TRACON
Tue 12:29:56 AM 33.9667 -118.2500 270° West 153 176 2,600 -793 Descending Southern California TRACON
Tue 12:30:57 AM 33.9667 -118.3000 248° West 152 175 1,800 -793 Descending Southern California TRACON
Tue 12:31:57 AM 33.9500 -118.3500 277° West 145 167 1,000 14,422 Descending Southern California TRACON
Tue 12:32:46 AM 33.9539 -118.3900 260° West 157 181 28,000 -495 Climbing Los Angeles Center
Tue 12:33:46 AM 33.9467 -118.4400 263° West 157 181 100  Descending Los Angeles Center
Tue 12:34:46 AM 33.9414 -118.4900 263° West 157 181 28,000 27,900 Climbing Los Angeles Center

Login

Don't have an account? Register now (free) for customized features, flight alerts, and more!